sensor_id;sensor_type;location;lat;lon;timestamp;pressure;altitude;pressure_sealevel;temperature;humidity
49178;BME280;35016;55.674;37.468;2023-05-24T00:00:32;99057.50;;;16.54;70.07
49178;BME280;35016;55.674;37.468;2023-05-24T00:03:00;99062.19;;;16.54;69.55
49178;BME280;35016;55.674;37.468;2023-05-24T00:05:29;99066.34;;;16.51;69.81
49178;BME280;35016;55.674;37.468;2023-05-24T00:07:57;99058.75;;;16.48;69.94
49178;BME280;35016;55.674;37.468;2023-05-24T00:10:25;99064.50;;;16.47;69.64
49178;BME280;35016;55.674;37.468;2023-05-24T00:12:52;99062.91;;;16.46;69.77
49178;BME280;35016;55.674;37.468;2023-05-24T00:15:19;99058.03;;;16.42;69.49
49178;BME280;35016;55.674;37.468;2023-05-24T00:17:46;99061.09;;;16.41;69.26
49178;BME280;35016;55.674;37.468;2023-05-24T00:20:14;99055.13;;;16.39;69.33
49178;BME280;35016;55.674;37.468;2023-05-24T00:22:41;99051.88;;;16.37;69.49
49178;BME280;35016;55.674;37.468;2023-05-24T00:25:08;99054.44;;;16.33;69.46
49178;BME280;35016;55.674;37.468;2023-05-24T00:27:35;99047.03;;;16.34;69.32
49178;BME280;35016;55.674;37.468;2023-05-24T00:30:04;99048.94;;;16.33;69.30
49178;BME280;35016;55.674;37.468;2023-05-24T00:32:41;99046.84;;;16.30;69.21
49178;BME280;35016;55.674;37.468;2023-05-24T00:35:09;99055.53;;;16.32;69.23
49178;BME280;35016;55.674;37.468;2023-05-24T00:37:36;99046.84;;;16.30;69.02
49178;BME280;35016;55.674;37.468;2023-05-24T00:40:04;99040.06;;;16.28;68.87
49178;BME280;35016;55.674;37.468;2023-05-24T00:42:32;99029.59;;;16.30;68.66
49178;BME280;35016;55.674;37.468;2023-05-24T00:44:59;99029.13;;;16.28;68.83
49178;BME280;35016;55.674;37.468;2023-05-24T00:47:29;99026.38;;;16.28;68.52
49178;BME280;35016;55.674;37.468;2023-05-24T00:49:58;99028.63;;;16.26;68.69
49178;BME280;35016;55.674;37.468;2023-05-24T00:52:25;99024.75;;;16.27;68.46
49178;BME280;35016;55.674;37.468;2023-05-24T00:54:54;99024.44;;;16.28;68.42
49178;BME280;35016;55.674;37.468;2023-05-24T00:57:21;99026.38;;;16.28;68.39
49178;BME280;35016;55.674;37.468;2023-05-24T00:59:50;99032.66;;;16.28;68.34
49178;BME280;35016;55.674;37.468;2023-05-24T01:02:20;99029.13;;;16.28;68.37
49178;BME280;35016;55.674;37.468;2023-05-24T01:04:47;99020.72;;;16.24;68.35
49178;BME280;35016;55.674;37.468;2023-05-24T01:07:23;99016.34;;;16.23;68.63
49178;BME280;35016;55.674;37.468;2023-05-24T01:13:14;99018.78;;;16.25;68.69
49178;BME280;35016;55.674;37.468;2023-05-24T01:15:58;99020.22;;;16.22;68.33
49178;BME280;35016;55.674;37.468;2023-05-24T01:18:32;99019.72;;;16.20;68.58
49178;BME280;35016;55.674;37.468;2023-05-24T01:24:03;99012.63;;;16.19;68.30
49178;BME280;35016;55.674;37.468;2023-05-24T01:29:18;99002.50;;;16.20;68.63
49178;BME280;35016;55.674;37.468;2023-05-24T01:31:46;99007.16;;;16.19;68.36
49178;BME280;35016;55.674;37.468;2023-05-24T01:34:14;99000.84;;;16.19;68.29
49178;BME280;35016;55.674;37.468;2023-05-24T01:36:41;98988.00;;;16.19;68.33
49178;BME280;35016;55.674;37.468;2023-05-24T01:39:10;98999.75;;;16.20;68.42
49178;BME280;35016;55.674;37.468;2023-05-24T01:44:42;98998.81;;;16.24;68.53
49178;BME280;35016;55.674;37.468;2023-05-24T01:50:27;99010.56;;;16.25;68.33
49178;BME280;35016;55.674;37.468;2023-05-24T01:53:02;99014.13;;;16.25;68.39
49178;BME280;35016;55.674;37.468;2023-05-24T01:55:32;99009.16;;;16.27;68.42
49178;BME280;35016;55.674;37.468;2023-05-24T01:58:01;99000.94;;;16.27;68.02
49178;BME280;35016;55.674;37.468;2023-05-24T02:00:29;98999.31;;;16.26;68.33
49178;BME280;35016;55.674;37.468;2023-05-24T02:02:57;99006.91;;;16.29;68.36
49178;BME280;35016;55.674;37.468;2023-05-24T02:05:25;99006.41;;;16.27;68.13
49178;BME280;35016;55.674;37.468;2023-05-24T02:07:52;99002.25;;;16.30;68.21
49178;BME280;35016;55.674;37.468;2023-05-24T02:10:19;99003.88;;;16.31;68.37
49178;BME280;35016;55.674;37.468;2023-05-24T02:12:46;98996.47;;;16.31;67.84
49178;BME280;35016;55.674;37.468;2023-05-24T02:15:13;99000.00;;;16.32;68.17
49178;BME280;35016;55.674;37.468;2023-05-24T02:17:41;99000.19;;;16.35;68.42
49178;BME280;35016;55.674;37.468;2023-05-24T02:20:09;98999.38;;;16.35;68.32
49178;BME280;35016;55.674;37.468;2023-05-24T02:22:39;98993.41;;;16.33;68.30
49178;BME280;35016;55.674;37.468;2023-05-24T02:25:07;98998.25;;;16.36;67.96
49178;BME280;35016;55.674;37.468;2023-05-24T02:27:34;98994.91;;;16.39;68.01
49178;BME280;35016;55.674;37.468;2023-05-24T02:30:01;98997.03;;;16.42;68.09
49178;BME280;35016;55.674;37.468;2023-05-24T02:32:30;98996.09;;;16.47;67.70
49178;BME280;35016;55.674;37.468;2023-05-24T02:34:59;98987.59;;;16.48;67.74
49178;BME280;35016;55.674;37.468;2023-05-24T02:37:29;98988.91;;;16.51;67.51
49178;BME280;35016;55.674;37.468;2023-05-24T02:39:56;98992.94;;;16.53;67.40
49178;BME280;35016;55.674;37.468;2023-05-24T02:42:23;98988.78;;;16.56;67.38
49178;BME280;35016;55.674;37.468;2023-05-24T02:44:51;98987.66;;;16.57;67.04
49178;BME280;35016;55.674;37.468;2023-05-24T02:47:18;98984.28;;;16.60;66.96
49178;BME280;35016;55.674;37.468;2023-05-24T02:49:46;98977.06;;;16.64;67.09
49178;BME280;35016;55.674;37.468;2023-05-24T02:52:13;98977.06;;;16.64;66.99
49178;BME280;35016;55.674;37.468;2023-05-24T02:54:41;98982.13;;;16.70;66.99
49178;BME280;35016;55.674;37.468;2023-05-24T03:00:03;98977.63;;;16.75;66.65
49178;BME280;35016;55.674;37.468;2023-05-24T03:02:33;98974.91;;;16.75;66.59
49178;BME280;35016;55.674;37.468;2023-05-24T03:05:05;98982.31;;;16.74;66.37
49178;BME280;35016;55.674;37.468;2023-05-24T03:07:32;98986.97;;;16.73;66.44
49178;BME280;35016;55.674;37.468;2023-05-24T03:10:00;98976.34;;;16.72;66.71
49178;BME280;35016;55.674;37.468;2023-05-24T03:12:30;98971.34;;;16.74;66.51
49178;BME280;35016;55.674;37.468;2023-05-24T03:14:57;98978.44;;;16.75;66.33
49178;BME280;35016;55.674;37.468;2023-05-24T03:17:25;98981.72;;;16.77;66.39
49178;BME280;35016;55.674;37.468;2023-05-24T03:19:52;98989.59;;;16.79;66.28
49178;BME280;35016;55.674;37.468;2023-05-24T03:22:19;98983.00;;;16.80;66.32
49178;BME280;35016;55.674;37.468;2023-05-24T03:24:47;98989.47;;;16.84;66.49
49178;BME280;35016;55.674;37.468;2023-05-24T03:27:15;98988.53;;;16.88;66.57
49178;BME280;35016;55.674;37.468;2023-05-24T03:29:42;98981.78;;;16.94;66.40
49178;BME280;35016;55.674;37.468;2023-05-24T03:32:10;98974.25;;;17.00;66.18
49178;BME280;35016;55.674;37.468;2023-05-24T03:34:37;98977.16;;;17.03;66.05
49178;BME280;35016;55.674;37.468;2023-05-24T03:37:05;98975.75;;;17.06;65.72
49178;BME280;35016;55.674;37.468;2023-05-24T03:39:32;98974.31;;;17.09;65.86
49178;BME280;35016;55.674;37.468;2023-05-24T03:42:17;98961.41;;;17.09;65.71
49178;BME280;35016;55.674;37.468;2023-05-24T03:44:44;98958.34;;;17.11;65.45
49178;BME280;35016;55.674;37.468;2023-05-24T03:47:11;98955.31;;;17.12;65.52
49178;BME280;35016;55.674;37.468;2023-05-24T03:49:39;98955.47;;;17.16;65.61
49178;BME280;35016;55.674;37.468;2023-05-24T03:52:06;98953.88;;;17.23;65.37
49178;BME280;35016;55.674;37.468;2023-05-24T03:54:33;98949.38;;;17.27;65.34
49178;BME280;35016;55.674;37.468;2023-05-24T03:57:00;98953.41;;;17.30;65.25
49178;BME280;35016;55.674;37.468;2023-05-24T03:59:28;98947.81;;;17.35;64.97
49178;BME280;35016;55.674;37.468;2023-05-24T04:01:56;98946.69;;;17.36;64.92
49178;BME280;35016;55.674;37.468;2023-05-24T04:04:24;98953.97;;;17.41;64.64
49178;BME280;35016;55.674;37.468;2023-05-24T04:06:51;98952.84;;;17.42;64.67
49178;BME280;35016;55.674;37.468;2023-05-24T04:09:21;98953.16;;;17.40;64.49
49178;BME280;35016;55.674;37.468;2023-05-24T04:11:48;98953.97;;;17.41;64.47
49178;BME280;35016;55.674;37.468;2023-05-24T04:14:16;98950.41;;;17.40;64.43
49178;BME280;35016;55.674;37.468;2023-05-24T04:16:43;98940.91;;;17.38;64.59
49178;BME280;35016;55.674;37.468;2023-05-24T04:19:11;98941.56;;;17.43;64.41
49178;BME280;35016;55.674;37.468;2023-05-24T04:21:38;98953.16;;;17.49;64.53
49178;BME280;35016;55.674;37.468;2023-05-24T04:24:05;98951.88;;;17.55;64.45
49178;BME280;35016;55.674;37.468;2023-05-24T04:26:33;98955.13;;;17.57;64.19
49178;BME280;35016;55.674;37.468;2023-05-24T04:29:00;98949.47;;;17.62;64.13
49178;BME280;35016;55.674;37.468;2023-05-24T04:31:28;98945.81;;;17.67;64.13
49178;BME280;35016;55.674;37.468;2023-05-24T04:33:56;98945.53;;;17.77;64.24
49178;BME280;35016;55.674;37.468;2023-05-24T04:36:24;98953.13;;;17.88;63.71
49178;BME280;35016;55.674;37.468;2023-05-24T04:38:53;98950.25;;;18.02;63.48
49178;BME280;35016;55.674;37.468;2023-05-24T04:41:22;98942.31;;;18.18;63.04
49178;BME280;35016;55.674;37.468;2023-05-24T04:43:50;98947.31;;;18.42;62.69
49178;BME280;35016;55.674;37.468;2023-05-24T04:46:17;98952.00;;;18.67;62.12
49178;BME280;35016;55.674;37.468;2023-05-24T04:48:44;98951.13;;;18.93;61.64
49178;BME280;35016;55.674;37.468;2023-05-24T04:51:11;98949.78;;;19.16;61.06
49178;BME280;35016;55.674;37.468;2023-05-24T04:53:39;98933.31;;;19.37;60.76
49178;BME280;35016;55.674;37.468;2023-05-24T04:56:06;98945.81;;;19.64;59.92
49178;BME280;35016;55.674;37.468;2023-05-24T04:58:33;98947.81;;;19.84;59.44
49178;BME280;35016;55.674;37.468;2023-05-24T05:01:02;98951.13;;;19.98;59.03
49178;BME280;35016;55.674;37.468;2023-05-24T05:03:30;98954.41;;;20.13;58.67
49178;BME280;35016;55.674;37.468;2023-05-24T05:05:57;98957.41;;;20.20;58.41
49178;BME280;35016;55.674;37.468;2023-05-24T05:08:25;98963.34;;;20.30;58.25
49178;BME280;35016;55.674;37.468;2023-05-24T05:10:52;98971.34;;;20.44;57.84
49178;BME280;35016;55.674;37.468;2023-05-24T05:13:19;98975.16;;;20.52;57.47
49178;BME280;35016;55.674;37.468;2023-05-24T05:15:47;98977.91;;;20.52;57.28
49178;BME280;35016;55.674;37.468;2023-05-24T05:18:15;98970.28;;;20.57;56.99
49178;BME280;35016;55.674;37.468;2023-05-24T05:20:42;98976.59;;;20.58;57.17
49178;BME280;35016;55.674;37.468;2023-05-24T05:23:09;98968.78;;;20.60;56.97
49178;BME280;35016;55.674;37.468;2023-05-24T05:25:37;98977.19;;;20.63;56.87
49178;BME280;35016;55.674;37.468;2023-05-24T05:28:04;98974.88;;;20.65;56.57
49178;BME280;35016;55.674;37.468;2023-05-24T05:30:31;98971.13;;;20.70;56.60
49178;BME280;35016;55.674;37.468;2023-05-24T05:32:58;98974.00;;;20.73;56.56
49178;BME280;35016;55.674;37.468;2023-05-24T05:35:25;98974.72;;;20.83;56.37
49178;BME280;35016;55.674;37.468;2023-05-24T05:37:53;98972.69;;;20.92;56.11
49178;BME280;35016;55.674;37.468;2023-05-24T05:40:20;98973.25;;;20.97;55.89
49178;BME280;35016;55.674;37.468;2023-05-24T05:42:47;98970.63;;;21.01;55.70
49178;BME280;35016;55.674;37.468;2023-05-24T05:45:17;98967.31;;;21.08;55.63
49178;BME280;35016;55.674;37.468;2023-05-24T05:47:44;98965.81;;;21.10;55.38
49178;BME280;35016;55.674;37.468;2023-05-24T05:50:11;98969.19;;;21.16;55.31
49178;BME280;35016;55.674;37.468;2023-05-24T05:52:38;98965.84;;;21.22;55.22
49178;BME280;35016;55.674;37.468;2023-05-24T05:55:06;98968.75;;;21.26;55.17
49178;BME280;35016;55.674;37.468;2023-05-24T05:57:33;98964.16;;;21.30;55.13
49178;BME280;35016;55.674;37.468;2023-05-24T06:00:01;98965.19;;;21.38;55.04
49178;BME280;35016;55.674;37.468;2023-05-24T06:02:38;98952.69;;;21.40;54.71
49178;BME280;35016;55.674;37.468;2023-05-24T06:05:06;98949.09;;;21.52;54.53
49178;BME280;35016;55.674;37.468;2023-05-24T06:07:33;98945.88;;;21.62;54.41
49178;BME280;35016;55.674;37.468;2023-05-24T06:10:02;98953.59;;;21.69;54.11
49178;BME280;35016;55.674;37.468;2023-05-24T06:12:31;98946.59;;;21.71;54.09
49178;BME280;35016;55.674;37.468;2023-05-24T06:14:58;98949.44;;;21.75;53.66
49178;BME280;35016;55.674;37.468;2023-05-24T06:17:26;98956.69;;;21.79;53.64
49178;BME280;35016;55.674;37.468;2023-05-24T06:19:54;98952.78;;;21.80;53.35
49178;BME280;35016;55.674;37.468;2023-05-24T06:22:22;98947.94;;;21.77;53.10
49178;BME280;35016;55.674;37.468;2023-05-24T06:24:49;98944.97;;;21.70;52.98
49178;BME280;35016;55.674;37.468;2023-05-24T06:27:16;98944.28;;;21.61;52.70
49178;BME280;35016;55.674;37.468;2023-05-24T06:29:43;98940.03;;;21.51;52.60
49178;BME280;35016;55.674;37.468;2023-05-24T06:32:11;98949.00;;;21.48;52.51
49178;BME280;35016;55.674;37.468;2023-05-24T06:34:38;98949.34;;;21.47;52.52
49178;BME280;35016;55.674;37.468;2023-05-24T06:37:05;98948.06;;;21.56;52.30
49178;BME280;35016;55.674;37.468;2023-05-24T06:39:36;98951.84;;;21.64;52.07
49178;BME280;35016;55.674;37.468;2023-05-24T06:42:03;98950.16;;;21.72;51.81
49178;BME280;35016;55.674;37.468;2023-05-24T06:44:35;98941.28;;;21.78;51.92
49178;BME280;35016;55.674;37.468;2023-05-24T06:47:03;98948.63;;;21.86;51.59
49178;BME280;35016;55.674;37.468;2023-05-24T06:49:31;98944.56;;;21.96;51.58
49178;BME280;35016;55.674;37.468;2023-05-24T06:51:59;98943.19;;;22.14;51.21
49178;BME280;35016;55.674;37.468;2023-05-24T06:54:26;98934.63;;;22.32;51.09
49178;BME280;35016;55.674;37.468;2023-05-24T06:56:53;98946.69;;;22.55;50.64
49178;BME280;35016;55.674;37.468;2023-05-24T06:59:21;98948.00;;;22.73;50.58
49178;BME280;35016;55.674;37.468;2023-05-24T07:01:48;98956.28;;;22.85;50.27
49178;BME280;35016;55.674;37.468;2023-05-24T07:04:19;98955.75;;;22.96;49.96
49178;BME280;35016;55.674;37.468;2023-05-24T07:06:46;98951.56;;;23.02;49.75
49178;BME280;35016;55.674;37.468;2023-05-24T07:09:13;98950.03;;;23.04;49.73
49178;BME280;35016;55.674;37.468;2023-05-24T07:11:41;98952.91;;;23.08;49.67
49178;BME280;35016;55.674;37.468;2023-05-24T07:14:09;98944.25;;;23.09;49.80
49178;BME280;35016;55.674;37.468;2023-05-24T07:16:36;98953.78;;;23.12;49.57
49178;BME280;35016;55.674;37.468;2023-05-24T07:19:03;98955.75;;;23.11;49.71
49178;BME280;35016;55.674;37.468;2023-05-24T07:21:30;98963.25;;;23.11;49.70
49178;BME280;35016;55.674;37.468;2023-05-24T07:23:58;98959.50;;;23.03;49.78
49178;BME280;35016;55.674;37.468;2023-05-24T07:26:25;98960.31;;;23.04;49.65
49178;BME280;35016;55.674;37.468;2023-05-24T07:28:52;98956.47;;;23.08;49.67
49178;BME280;35016;55.674;37.468;2023-05-24T07:31:19;98960.41;;;23.07;49.47
49178;BME280;35016;55.674;37.468;2023-05-24T07:33:49;98955.13;;;23.02;49.46
49178;BME280;35016;55.674;37.468;2023-05-24T07:36:16;98962.44;;;22.95;49.53
49178;BME280;35016;55.674;37.468;2023-05-24T07:38:44;98961.00;;;22.85;49.48
49178;BME280;35016;55.674;37.468;2023-05-24T07:41:18;98946.50;;;22.76;49.62
49178;BME280;35016;55.674;37.468;2023-05-24T07:43:45;98974.34;;;22.83;49.64
49178;BME280;35016;55.674;37.468;2023-05-24T07:46:13;98947.72;;;22.63;49.66
49178;BME280;35016;55.674;37.468;2023-05-24T07:48:43;98958.16;;;22.69;49.63
49178;BME280;35016;55.674;37.468;2023-05-24T07:51:37;98969.31;;;22.73;49.40
49178;BME280;35016;55.674;37.468;2023-05-24T07:54:12;98957.81;;;22.43;49.92
49178;BME280;35016;55.674;37.468;2023-05-24T07:56:42;98933.72;;;22.28;49.90
49178;BME280;35016;55.674;37.468;2023-05-24T07:59:10;98954.44;;;22.21;50.31
49178;BME280;35016;55.674;37.468;2023-05-24T08:01:38;98966.53;;;22.17;50.53
49178;BME280;35016;55.674;37.468;2023-05-24T08:04:05;98975.06;;;22.12;50.93
49178;BME280;35016;55.674;37.468;2023-05-24T08:06:35;98982.31;;;21.92;50.90
49178;BME280;35016;55.674;37.468;2023-05-24T08:09:06;98973.59;;;21.78;51.12
49178;BME280;35016;55.674;37.468;2023-05-24T08:11:35;98964.03;;;21.63;51.44
49178;BME280;35016;55.674;37.468;2023-05-24T08:14:02;98969.09;;;21.61;51.67
49178;BME280;35016;55.674;37.468;2023-05-24T08:16:31;98971.06;;;21.48;51.78
49178;BME280;35016;55.674;37.468;2023-05-24T08:18:58;98970.28;;;21.48;51.85
49178;BME280;35016;55.674;37.468;2023-05-24T08:21:29;98996.25;;;21.59;52.03
49178;BME280;35016;55.674;37.468;2023-05-24T08:23:58;98972.22;;;21.47;51.88
49178;BME280;35016;55.674;37.468;2023-05-24T08:26:26;98963.59;;;21.61;52.11
49178;BME280;35016;55.674;37.468;2023-05-24T08:28:54;98956.34;;;21.56;51.82
49178;BME280;35016;55.674;37.468;2023-05-24T08:31:21;98953.00;;;21.63;51.97
49178;BME280;35016;55.674;37.468;2023-05-24T08:33:49;98964.28;;;21.70;52.32
49178;BME280;35016;55.674;37.468;2023-05-24T08:36:17;98963.13;;;21.71;52.26
49178;BME280;35016;55.674;37.468;2023-05-24T08:38:44;98959.56;;;21.83;52.17
49178;BME280;35016;55.674;37.468;2023-05-24T08:41:14;98953.44;;;21.89;52.37
49178;BME280;35016;55.674;37.468;2023-05-24T08:43:43;98959.66;;;22.11;52.03
49178;BME280;35016;55.674;37.468;2023-05-24T08:46:11;98973.25;;;22.44;51.81
49178;BME280;35016;55.674;37.468;2023-05-24T08:48:45;98979.13;;;22.70;51.72
49178;BME280;35016;55.674;37.468;2023-05-24T08:51:14;98964.50;;;22.70;51.37
49178;BME280;35016;55.674;37.468;2023-05-24T08:53:45;98965.03;;;22.88;51.17
49178;BME280;35016;55.674;37.468;2023-05-24T08:56:16;98960.47;;;22.95;51.09
49178;BME280;35016;55.674;37.468;2023-05-24T08:58:44;98958.44;;;23.08;50.38
49178;BME280;35016;55.674;37.468;2023-05-24T09:01:18;98978.44;;;23.33;49.92
49178;BME280;35016;55.674;37.468;2023-05-24T09:03:49;98968.25;;;23.37;50.00
49178;BME280;35016;55.674;37.468;2023-05-24T09:06:20;98952.81;;;23.52;49.68
49178;BME280;35016;55.674;37.468;2023-05-24T09:08:49;98966.50;;;23.76;48.96
49178;BME280;35016;55.674;37.468;2023-05-24T09:11:19;98961.63;;;23.89;48.65
49178;BME280;35016;55.674;37.468;2023-05-24T09:13:50;98956.78;;;24.01;48.51
49178;BME280;35016;55.674;37.468;2023-05-24T09:16:17;98987.19;;;24.33;48.41
49178;BME280;35016;55.674;37.468;2023-05-24T09:18:46;98951.16;;;24.33;48.24
49178;BME280;35016;55.674;37.468;2023-05-24T09:21:13;98946.25;;;24.46;47.88
49178;BME280;35016;55.674;37.468;2023-05-24T09:23:42;98949.53;;;24.51;47.37
49178;BME280;35016;55.674;37.468;2023-05-24T09:26:10;98952.75;;;24.53;47.56
49178;BME280;35016;55.674;37.468;2023-05-24T09:28:38;98975.28;;;24.71;47.74
49178;BME280;35016;55.674;37.468;2023-05-24T09:31:08;98968.56;;;24.72;47.37
49178;BME280;35016;55.674;37.468;2023-05-24T09:33:35;98958.41;;;24.80;46.57
49178;BME280;35016;55.674;37.468;2023-05-24T09:36:04;98962.78;;;24.81;46.45
49178;BME280;35016;55.674;37.468;2023-05-24T09:38:38;98958.84;;;24.82;46.12
49178;BME280;35016;55.674;37.468;2023-05-24T09:47:40;98969.59;;;25.48;45.35
49178;BME280;35016;55.674;37.468;2023-05-24T09:50:12;98973.47;;;25.67;44.47
49178;BME280;35016;55.674;37.468;2023-05-24T09:52:40;98978.31;;;25.73;45.07
49178;BME280;35016;55.674;37.468;2023-05-24T09:58:00;98978.66;;;25.68;44.37
49178;BME280;35016;55.674;37.468;2023-05-24T10:00:36;98976.59;;;25.65;44.66
49178;BME280;35016;55.674;37.468;2023-05-24T10:03:09;98977.34;;;25.62;44.70
49178;BME280;35016;55.674;37.468;2023-05-24T10:05:44;98978.19;;;25.66;44.45
49178;BME280;35016;55.674;37.468;2023-05-24T10:08:13;98980.25;;;25.69;44.59
49178;BME280;35016;55.674;37.468;2023-05-24T10:10:43;98979.59;;;25.76;44.23
49178;BME280;35016;55.674;37.468;2023-05-24T10:13:14;98971.31;;;25.79;44.15
49178;BME280;35016;55.674;37.468;2023-05-24T10:15:46;98973.66;;;25.77;43.15
49178;BME280;35016;55.674;37.468;2023-05-24T10:18:17;98982.00;;;25.77;43.36
49178;BME280;35016;55.674;37.468;2023-05-24T10:20:46;98966.75;;;25.68;43.47
49178;BME280;35016;55.674;37.468;2023-05-24T10:23:19;98986.59;;;25.70;43.21
49178;BME280;35016;55.674;37.468;2023-05-24T10:28:55;98992.41;;;25.38;43.29
49178;BME280;35016;55.674;37.468;2023-05-24T10:31:27;98997.50;;;25.13;43.85
49178;BME280;35016;55.674;37.468;2023-05-24T10:33:57;98995.63;;;24.98;44.00
49178;BME280;35016;55.674;37.468;2023-05-24T10:36:33;98994.25;;;24.88;44.35
49178;BME280;35016;55.674;37.468;2023-05-24T10:39:01;99003.50;;;24.96;44.23
49178;BME280;35016;55.674;37.468;2023-05-24T10:41:38;98996.22;;;25.07;44.21
49178;BME280;35016;55.674;37.468;2023-05-24T10:44:11;99000.66;;;25.12;44.04
49178;BME280;35016;55.674;37.468;2023-05-24T10:47:14;99002.69;;;25.15;43.75
49178;BME280;35016;55.674;37.468;2023-05-24T10:49:50;98999.72;;;25.04;43.79
49178;BME280;35016;55.674;37.468;2023-05-24T10:52:19;99003.50;;;24.96;43.92
49178;BME280;35016;55.674;37.468;2023-05-24T10:55:17;99002.94;;;24.87;43.60
49178;BME280;35016;55.674;37.468;2023-05-24T10:57:46;98994.34;;;24.73;43.85
49178;BME280;35016;55.674;37.468;2023-05-24T11:03:05;99009.75;;;24.89;43.89
49178;BME280;35016;55.674;37.468;2023-05-24T11:05:56;99008.56;;;25.32;43.29
49178;BME280;35016;55.674;37.468;2023-05-24T11:08:30;99008.03;;;25.96;42.17
49178;BME280;35016;55.674;37.468;2023-05-24T11:11:08;99007.47;;;26.36;42.06
49178;BME280;35016;55.674;37.468;2023-05-24T11:13:39;99006.06;;;26.49;41.71
49178;BME280;35016;55.674;37.468;2023-05-24T11:16:07;99010.34;;;26.43;41.75
49178;BME280;35016;55.674;37.468;2023-05-24T11:18:38;99010.19;;;26.32;41.74
49178;BME280;35016;55.674;37.468;2023-05-24T11:21:05;99013.19;;;26.20;41.61
49178;BME280;35016;55.674;37.468;2023-05-24T11:23:34;99017.78;;;26.09;42.07
49178;BME280;35016;55.674;37.468;2023-05-24T11:26:05;99013.66;;;25.99;42.39
49178;BME280;35016;55.674;37.468;2023-05-24T11:28:35;99027.03;;;25.90;42.31
49178;BME280;35016;55.674;37.468;2023-05-24T11:31:07;99023.38;;;25.86;41.77
49178;BME280;35016;55.674;37.468;2023-05-24T11:33:40;99010.72;;;25.88;41.84
49178;BME280;35016;55.674;37.468;2023-05-24T11:36:08;99017.88;;;26.16;41.92
49178;BME280;35016;55.674;37.468;2023-05-24T11:38:36;99023.31;;;26.62;41.32
49178;BME280;35016;55.674;37.468;2023-05-24T11:41:04;99024.28;;;27.10;40.32
49178;BME280;35016;55.674;37.468;2023-05-24T11:43:31;99021.38;;;27.36;39.86
49178;BME280;35016;55.674;37.468;2023-05-24T11:45:59;99023.34;;;27.32;39.97
49178;BME280;35016;55.674;37.468;2023-05-24T11:48:27;99014.41;;;27.16;39.55
49178;BME280;35016;55.674;37.468;2023-05-24T11:50:55;99025.09;;;27.10;39.28
49178;BME280;35016;55.674;37.468;2023-05-24T11:53:23;99017.19;;;27.16;39.44
49178;BME280;35016;55.674;37.468;2023-05-24T11:55:54;99021.28;;;27.26;38.97
49178;BME280;35016;55.674;37.468;2023-05-24T11:58:24;99020.94;;;27.31;39.10
49178;BME280;35016;55.674;37.468;2023-05-24T12:00:52;99019.25;;;27.19;39.30
49178;BME280;35016;55.674;37.468;2023-05-24T12:03:19;99020.22;;;27.00;39.39
49178;BME280;35016;55.674;37.468;2023-05-24T12:05:50;99016.72;;;26.77;40.16
49178;BME280;35016;55.674;37.468;2023-05-24T12:08:18;99014.41;;;26.49;40.47
49178;BME280;35016;55.674;37.468;2023-05-24T12:10:47;99014.78;;;26.21;40.98
49178;BME280;35016;55.674;37.468;2023-05-24T12:13:22;99005.69;;;25.98;41.30
49178;BME280;35016;55.674;37.468;2023-05-24T12:15:54;99009.78;;;25.77;41.66
49178;BME280;35016;55.674;37.468;2023-05-24T12:18:24;99008.22;;;25.57;41.97
49178;BME280;35016;55.674;37.468;2023-05-24T12:20:55;99012.59;;;25.35;42.03
49178;BME280;35016;55.674;37.468;2023-05-24T12:23:24;99021.69;;;25.13;42.54
49178;BME280;35016;55.674;37.468;2023-05-24T12:26:00;99003.50;;;24.96;43.09
49178;BME280;35016;55.674;37.468;2023-05-24T12:28:35;99001.78;;;24.88;43.19
49178;BME280;35016;55.674;37.468;2023-05-24T12:31:03;98993.72;;;24.83;43.32
49178;BME280;35016;55.674;37.468;2023-05-24T12:33:32;99005.50;;;24.76;43.63
49178;BME280;35016;55.674;37.468;2023-05-24T12:36:00;99002.59;;;24.69;43.66
49178;BME280;35016;55.674;37.468;2023-05-24T12:38:27;98992.22;;;24.66;43.68
49178;BME280;35016;55.674;37.468;2023-05-24T12:40:54;98988.53;;;24.58;43.59
49178;BME280;35016;55.674;37.468;2023-05-24T12:43:39;98986.09;;;24.57;43.78
49178;BME280;35016;55.674;37.468;2023-05-24T12:46:06;98998.44;;;24.59;44.01
49178;BME280;35016;55.674;37.468;2023-05-24T12:48:33;98989.22;;;24.55;44.13
49178;BME280;35016;55.674;37.468;2023-05-24T12:51:01;98994.69;;;24.52;44.19
49178;BME280;35016;55.674;37.468;2023-05-24T12:53:28;98997.03;;;24.50;44.34
49178;BME280;35016;55.674;37.468;2023-05-24T12:55:56;98990.63;;;24.46;44.34
49178;BME280;35016;55.674;37.468;2023-05-24T12:58:23;98997.75;;;24.47;44.20
49178;BME280;35016;55.674;37.468;2023-05-24T13:00:51;99000.53;;;24.47;44.45
49178;BME280;35016;55.674;37.468;2023-05-24T13:03:18;99004.03;;;24.44;44.27
49178;BME280;35016;55.674;37.468;2023-05-24T13:05:45;98992.81;;;24.36;44.32
49178;BME280;35016;55.674;37.468;2023-05-24T13:08:13;98996.22;;;24.30;44.53
49178;BME280;35016;55.674;37.468;2023-05-24T13:10:40;98999.34;;;24.28;44.51
49178;BME280;35016;55.674;37.468;2023-05-24T13:13:08;99007.31;;;24.30;44.55
49178;BME280;35016;55.674;37.468;2023-05-24T13:15:35;99016.66;;;24.41;44.43
49178;BME280;35016;55.674;37.468;2023-05-24T13:18:04;99013.31;;;24.51;44.42
49178;BME280;35016;55.674;37.468;2023-05-24T13:20:31;99016.69;;;24.60;43.96
49178;BME280;35016;55.674;37.468;2023-05-24T13:22:58;99025.44;;;24.62;43.81
49178;BME280;35016;55.674;37.468;2023-05-24T13:25:27;99013.63;;;24.65;43.80
49178;BME280;35016;55.674;37.468;2023-05-24T13:27:54;99011.91;;;24.80;43.79
49178;BME280;35016;55.674;37.468;2023-05-24T13:30:22;99008.50;;;25.06;43.53
49178;BME280;35016;55.674;37.468;2023-05-24T13:32:54;99013.22;;;25.48;42.92